F/V Cote D'ambre — FPEY — position and weather

sailwx.info

Track history (hours):
 
Tides and Currents Weather Stations Pressure Air Temp Water Temp Dewpoint Dewpoint Depression Visibility Wind Speed Wind Dir Waves Ship Positions

F/V Cote D'ambre

Last reported at 2014-Dec-20 03:06 UTC. Time now 2014-Dec-21 22:19 UTC.
Position N 47°44' W 003°22'.

Length 16 m; draft 4 m.

Type: Fishing. MMSI: 227128800.

Date/timePositionNaut miles runAvg speedWind from/ knotsBaromVisibWave heightAir tempDewpointWater temp
2014-Dec-20 03:06N 47°44' W 003°22'0 0.2
2014-Dec-20 02:32N 47°44' W 003°22'0 0.0
2014-Dec-20 01:32N 47°44' W 003°22'3 2.7
2014-Dec-20 00:34N 47°41' W 003°22'9 0.2
2014-Dec-18 03:32N 47°32' W 003°23'8 8.4
2014-Dec-18 02:33N 47°40' W 003°22'3 3.2
2014-Dec-18 01:32N 47°44' W 003°22'0 0.2
2014-Dec-18 00:31N 47°44' W 003°22'3 2.9
2014-Dec-17 23:33N 47°41' W 003°22'8 7.5
2014-Dec-17 22:33N 47°33' W 003°22'4 0.1
2014-Dec-16 04:33N 47°37' W 003°22'6 6.3
2014-Dec-16 03:32N 47°44' W 003°22'0 0.1
2014-Dec-16 02:25N 47°44' W 003°22'2 2.7
2014-Dec-16 01:33N 47°42' W 003°23'8 7.9
2014-Dec-16 00:31N 47°40' W 003°35'2 2.4
2014-Dec-15 23:33N 47°39' W 003°38'4 3.6
2014-Dec-15 22:33N 47°38' W 003°43'4 0.9
2014-Dec-15 18:16N 47°35' W 003°41'3 1.4
2014-Dec-15 16:11N 47°33' W 003°38'5 2.8
2014-Dec-15 14:23N 47°37' W 003°42'3 2.1
2014-Dec-15 13:11N 47°35' W 003°40'1 0.2
2014-Dec-15 08:18N 47°35' W 003°40'4 2.0
2014-Dec-15 06:33N 47°39' W 003°38'7 7.1
2014-Dec-15 05:33N 47°40' W 003°28'5 5.3
2014-Dec-15 04:32N 47°44' W 003°22'0 0.0
2014-Dec-15 03:32N 47°44' W 003°22'0 0.0
2014-Dec-15 02:32N 47°44' W 003°22'0 0.0
2014-Dec-15 01:32N 47°44' W 003°22'0 0.0
2014-Dec-15 00:32N 47°44' W 003°22'4 4.0
2014-Dec-14 23:33N 47°41' W 003°26'7 4.9
2014-Dec-14 22:13N 47°38' W 003°34'4 0.2
2014-Dec-14 06:33N 47°40' W 003°30'6 0.1
2014-Dec-12 04:33N 47°44' W 003°22'0 0.0
2014-Dec-12 03:32N 47°44' W 003°22'0 0.0
2014-Dec-12 02:32N 47°44' W 003°22'4 4.1
2014-Dec-12 01:34N 47°41' W 003°26'6 5.6
2014-Dec-12 00:24N 47°36' W 003°32'6 0.2
2014-Dec-11 00:33N 47°30' W 003°28'2 0.8
2014-Dec-10 22:22N 47°32' W 003°28'5 0.3
2014-Dec-10 05:33N 47°35' W 003°22'8 8.0
2014-Dec-10 04:33N 47°43' W 003°22'0 0.3
2014-Dec-10 03:32N 47°44' W 003°22'  
Track history (hours):
 
Tides and Currents Weather Stations Pressure Air Temp Water Temp Dewpoint Dewpoint Depression Visibility Wind Speed Wind Dir Waves Ship Positions

F/V Cote D'ambre

Last reported at 2014-Dec-20 03:06 UTC. Time now 2014-Dec-21 22:19 UTC.
Position N 47°44' W 003°22'.

Length 16 m; draft 4 m.

Type: Fishing. MMSI: 227128800.

Date/timePositionNaut miles runAvg speedWind from/ knotsBaromVisibWave heightAir tempDewpointWater temp
2014-Dec-20 03:06N 47°44' W 003°22'0 0.2
2014-Dec-20 02:32N 47°44' W 003°22'0 0.0
2014-Dec-20 01:32N 47°44' W 003°22'3 2.7
2014-Dec-20 00:34N 47°41' W 003°22'9 0.2
2014-Dec-18 03:32N 47°32' W 003°23'8 8.4
2014-Dec-18 02:33N 47°40' W 003°22'3 3.2
2014-Dec-18 01:32N 47°44' W 003°22'0 0.2
2014-Dec-18 00:31N 47°44' W 003°22'3 2.9
2014-Dec-17 23:33N 47°41' W 003°22'8 7.5
2014-Dec-17 22:33N 47°33' W 003°22'4 0.1
2014-Dec-16 04:33N 47°37' W 003°22'6 6.3
2014-Dec-16 03:32N 47°44' W 003°22'0 0.1
2014-Dec-16 02:25N 47°44' W 003°22'2 2.7
2014-Dec-16 01:33N 47°42' W 003°23'8 7.9
2014-Dec-16 00:31N 47°40' W 003°35'2 2.4
2014-Dec-15 23:33N 47°39' W 003°38'4 3.6
2014-Dec-15 22:33N 47°38' W 003°43'4 0.9
2014-Dec-15 18:16N 47°35' W 003°41'3 1.4
2014-Dec-15 16:11N 47°33' W 003°38'5 2.8
2014-Dec-15 14:23N 47°37' W 003°42'3 2.1
2014-Dec-15 13:11N 47°35' W 003°40'1 0.2
2014-Dec-15 08:18N 47°35' W 003°40'4 2.0
2014-Dec-15 06:33N 47°39' W 003°38'7 7.1
2014-Dec-15 05:33N 47°40' W 003°28'5 5.3
2014-Dec-15 04:32N 47°44' W 003°22'0 0.0
2014-Dec-15 03:32N 47°44' W 003°22'0 0.0
2014-Dec-15 02:32N 47°44' W 003°22'0 0.0
2014-Dec-15 01:32N 47°44' W 003°22'0 0.0
2014-Dec-15 00:32N 47°44' W 003°22'4 4.0
2014-Dec-14 23:33N 47°41' W 003°26'7 4.9
2014-Dec-14 22:13N 47°38' W 003°34'4 0.2
2014-Dec-14 06:33N 47°40' W 003°30'6 0.1
2014-Dec-12 04:33N 47°44' W 003°22'0 0.0
2014-Dec-12 03:32N 47°44' W 003°22'0 0.0
2014-Dec-12 02:32N 47°44' W 003°22'4 4.1
2014-Dec-12 01:34N 47°41' W 003°26'6 5.6
2014-Dec-12 00:24N 47°36' W 003°32'6 0.2
2014-Dec-11 00:33N 47°30' W 003°28'2 0.8
2014-Dec-10 22:22N 47°32' W 003°28'5 0.3
2014-Dec-10 05:33N 47°35' W 003°22'8 8.0
2014-Dec-10 04:33N 47°43' W 003°22'0 0.3
2014-Dec-10 03:32N 47°44' W 003°22'  

Dump ship's entire track history